Time;durP1;ratioP1;P1;durP2;ratioP2;P2;SDS_P1;SDS_P2;PMS_P1;PMS_P2;Temp;Humidity;BMP_temperature;BMP_pressure;BME280_temperature;BME280_humidity;BME280_pressure;Samples;Min_cycle;Max_cycle;Signal;HPM_P1;HPM_P2
2023/07/08 00:00:23;;;;;;;3.67;1.60;;;22.60;99.90;;;;;;5093829;28;20068;-69
2023/07/08 00:02:50;;;;;;;1.48;1.30;;;22.70;99.90;;;;;;5093871;28;20032;-69
2023/07/08 00:05:18;;;;;;;1.77;1.25;;;22.60;99.90;;;;;;5093661;28;20026;-68
2023/07/08 00:07:44;;;;;;;2.38;1.50;;;22.60;99.90;;;;;;5093282;28;20036;-68
2023/07/08 00:10:16;;;;;;;3.35;1.35;;;22.60;99.90;;;;;;5093791;28;20111;-69
2023/07/08 00:12:43;;;;;;;1.83;1.20;;;22.60;99.90;;;;;;5093286;28;20026;-69
2023/07/08 00:15:10;;;;;;;2.45;1.63;;;22.60;99.90;;;;;;5093352;28;20028;-68
2023/07/08 00:17:36;;;;;;;4.43;1.40;;;22.70;99.90;;;;;;5093236;28;20032;-69
2023/07/08 00:20:08;;;;;;;1.65;1.35;;;22.60;99.90;;;;;;5093200;28;20047;-68
2023/07/08 00:22:36;;;;;;;2.85;1.40;;;22.50;99.90;;;;;;5092808;28;20174;-68
2023/07/08 00:25:02;;;;;;;2.53;1.50;;;22.50;99.90;;;;;;5093226;28;20043;-69
2023/07/08 00:27:27;;;;;;;3.08;1.50;;;22.50;99.90;;;;;;5093472;28;20516;-69
2023/07/08 00:29:53;;;;;;;2.72;1.50;;;22.40;99.90;;;;;;5093303;28;20413;-69
2023/07/08 00:32:19;;;;;;;1.80;1.48;;;22.30;99.90;;;;;;5093110;28;20024;-68
2023/07/08 00:34:45;;;;;;;1.30;1.20;;;22.00;99.90;;;;;;5093057;28;20028;-68
2023/07/08 00:37:12;;;;;;;2.00;1.40;;;22.00;99.90;;;;;;5092840;28;20020;-68
2023/07/08 00:39:38;;;;;;;2.05;1.48;;;21.90;99.90;;;;;;5093275;28;20030;-69
2023/07/08 00:42:18;;;;;;;1.70;1.48;;;21.90;99.90;;;;;;5093027;28;20605;-68
2023/07/08 00:44:44;;;;;;;2.72;1.80;;;21.80;99.90;;;;;;5092922;28;20043;-68
2023/07/08 00:47:12;;;;;;;2.25;1.30;;;21.60;99.90;;;;;;5092854;28;20032;-69
2023/07/08 00:49:55;;;;;;;2.55;1.38;;;21.60;99.90;;;;;;5093055;28;20032;-69
2023/07/08 00:52:28;;;;;;;2.88;1.50;;;21.50;99.90;;;;;;5092626;28;20085;-68
2023/07/08 00:55:05;;;;;;;2.00;1.40;;;21.40;99.90;;;;;;5092829;28;20042;-69
2023/07/08 00:57:35;;;;;;;2.00;1.50;;;21.40;99.90;;;;;;5092601;28;20266;-69
2023/07/08 01:00:27;;;;;;;1.67;1.58;;;21.20;99.90;;;;;;5092561;28;20047;-70
2023/07/08 01:02:56;;;;;;;3.88;1.50;;;21.30;99.90;;;;;;5089808;28;20032;-69
2023/07/08 01:05:25;;;;;;;3.20;1.58;;;21.30;99.90;;;;;;5091877;28;20082;-69
2023/07/08 01:07:56;;;;;;;2.40;1.60;;;21.30;99.90;;;;;;5091512;28;20813;-69
2023/07/08 01:10:33;;;;;;;3.35;1.80;;;21.20;99.90;;;;;;5092345;28;20038;-68
2023/07/08 01:13:04;;;;;;;2.75;1.70;;;21.20;99.90;;;;;;5092612;28;20027;-68
2023/07/08 01:15:40;;;;;;;3.20;1.50;;;21.20;99.90;;;;;;5092402;28;20024;-68
2023/07/08 01:18:08;;;;;;;2.72;1.50;;;21.20;99.90;;;;;;5092230;28;20016;-68
2023/07/08 01:20:34;;;;;;;1.98;1.60;;;21.30;99.90;;;;;;5091934;28;20024;-69
2023/07/08 01:23:00;;;;;;;2.95;1.52;;;21.40;99.90;;;;;;5092159;28;20055;-69
2023/07/08 01:25:26;;;;;;;3.42;1.70;;;21.40;99.90;;;;;;5092164;28;20027;-69
2023/07/08 01:27:55;;;;;;;3.70;1.63;;;21.40;99.90;;;;;;5092330;28;20089;-69
2023/07/08 01:30:21;;;;;;;2.90;1.67;;;21.50;99.90;;;;;;5091942;28;20024;-69
2023/07/08 01:32:55;;;;;;;1.88;1.67;;;21.50;99.90;;;;;;5091749;28;20028;-69
2023/07/08 01:35:22;;;;;;;2.38;1.70;;;21.40;99.90;;;;;;5091976;28;20024;-69
2023/07/08 01:38:05;;;;;;;3.40;1.80;;;21.40;99.90;;;;;;5092423;28;20024;-69
2023/07/08 01:40:34;;;;;;;2.13;1.80;;;21.40;99.90;;;;;;5091953;28;20496;-69
2023/07/08 01:43:00;;;;;;;2.13;1.35;;;21.40;99.90;;;;;;5092346;28;20364;-69
2023/07/08 01:45:30;;;;;;;3.17;1.50;;;21.40;99.90;;;;;;5091877;28;20028;-70
2023/07/08 01:48:09;;;;;;;4.60;1.77;;;21.30;99.90;;;;;;5091644;28;20043;-68
2023/07/08 01:50:38;;;;;;;2.50;1.55;;;21.30;99.90;;;;;;5091508;28;20100;-69
2023/07/08 01:53:13;;;;;;;5.10;1.75;;;21.10;99.90;;;;;;5092113;28;20020;-70
2023/07/08 01:55:39;;;;;;;2.60;1.92;;;21.00;99.90;;;;;;5091640;28;20028;-70
2023/07/08 01:58:04;;;;;;;2.28;1.70;;;20.90;99.90;;;;;;5091351;28;20371;-70
2023/07/08 02:00:30;;;;;;;3.42;1.70;;;20.80;99.90;;;;;;5091814;28;20020;-70
2023/07/08 02:02:56;;;;;;;2.45;1.73;;;20.80;99.90;;;;;;5090910;28;20024;-69
2023/07/08 02:05:23;;;;;;;4.22;1.80;;;20.80;99.90;;;;;;5091661;28;20027;-69
2023/07/08 02:07:48;;;;;;;3.90;2.22;;;20.70;99.90;;;;;;5090066;28;20085;-69
2023/07/08 02:10:14;;;;;;;3.00;1.75;;;20.70;99.90;;;;;;5091742;28;20024;-70
2023/07/08 02:12:40;;;;;;;3.28;1.70;;;20.60;99.90;;;;;;5089972;28;20038;-69
2023/07/08 02:15:06;;;;;;;2.53;1.83;;;20.50;99.90;;;;;;5124109;27;20104;-69
2023/07/08 02:17:32;;;;;;;3.92;2.08;;;20.40;99.90;;;;;;5090423;28;20020;-69
2023/07/08 02:19:58;;;;;;;2.97;1.90;;;20.30;99.90;;;;;;5091649;28;20066;-69
2023/07/08 02:22:23;;;;;;;2.97;1.65;;;20.30;99.90;;;;;;5091218;28;20024;-69
2023/07/08 02:24:49;;;;;;;2.88;1.85;;;20.30;99.90;;;;;;5091194;28;20031;-70
2023/07/08 02:27:16;;;;;;;4.60;1.73;;;20.40;99.90;;;;;;5091459;28;20051;-70
2023/07/08 02:29:42;;;;;;;3.13;1.90;;;20.40;99.90;;;;;;5091122;28;20058;-70
2023/07/08 02:32:09;;;;;;;3.55;1.95;;;20.30;99.90;;;;;;5091112;28;20029;-69
2023/07/08 02:34:35;;;;;;;3.17;1.80;;;20.30;99.90;;;;;;5091238;28;20030;-69
2023/07/08 02:37:01;;;;;;;3.05;1.85;;;20.40;99.90;;;;;;5091269;28;20035;-69
2023/07/08 02:39:27;;;;;;;2.75;1.90;;;20.50;99.90;;;;;;5091067;28;20517;-70
2023/07/08 02:41:52;;;;;;;3.38;1.90;;;20.60;99.90;;;;;;5091123;28;20181;-69
2023/07/08 02:44:18;;;;;;;3.15;2.00;;;20.60;99.90;;;;;;5091138;28;20024;-68
2023/07/08 02:46:44;;;;;;;3.42;1.70;;;20.60;99.90;;;;;;5091080;28;20028;-69
2023/07/08 02:49:09;;;;;;;2.53;1.95;;;20.60;99.90;;;;;;5091108;28;20043;-69
2023/07/08 02:51:36;;;;;;;3.42;1.88;;;20.70;99.90;;;;;;5091026;28;20024;-69
2023/07/08 02:54:01;;;;;;;2.72;1.70;;;20.70;99.90;;;;;;5090975;28;20494;-68
2023/07/08 02:56:27;;;;;;;3.65;1.92;;;20.60;99.90;;;;;;5091139;28;20029;-69
2023/07/08 02:58:53;;;;;;;3.17;2.03;;;20.60;99.90;;;;;;5091016;28;20123;-69
2023/07/08 03:01:19;;;;;;;3.10;1.85;;;20.60;99.90;;;;;;5090517;28;20027;-70
2023/07/08 03:03:46;;;;;;;3.95;1.98;;;20.60;99.90;;;;;;5091044;28;20028;-70
2023/07/08 03:06:12;;;;;;;3.10;1.88;;;20.60;99.90;;;;;;5090939;28;20036;-69
2023/07/08 03:08:38;;;;;;;2.72;1.90;;;20.40;99.90;;;;;;5090751;28;20595;-69
2023/07/08 03:11:07;;;;;;;6.35;1.95;;;20.30;99.90;;;;;;5091084;28;20028;-69
2023/07/08 03:13:34;;;;;;;2.55;1.85;;;20.20;99.90;;;;;;5090601;28;20039;-70
2023/07/08 03:16:01;;;;;;;2.30;1.80;;;20.10;99.90;;;;;;5090879;28;20020;-69
2023/07/08 03:18:28;;;;;;;4.60;2.00;;;20.00;99.90;;;;;;5090699;28;20066;-69
2023/07/08 03:20:57;;;;;;;3.90;2.00;;;20.00;99.90;;;;;;5090511;28;20111;-70
2023/07/08 03:23:24;;;;;;;3.78;1.80;;;20.00;99.90;;;;;;5090858;28;20052;-70
2023/07/08 03:25:50;;;;;;;3.33;1.80;;;19.90;99.90;;;;;;5091006;28;20032;-70
2023/07/08 03:28:16;;;;;;;2.90;1.83;;;19.90;99.90;;;;;;5090582;28;20085;-69
2023/07/08 03:30:42;;;;;;;3.33;2.00;;;19.90;99.90;;;;;;5092510;28;20111;-70
2023/07/08 03:33:09;;;;;;;2.80;1.92;;;19.90;99.90;;;;;;5094695;28;20078;-69
2023/07/08 03:35:35;;;;;;;5.50;2.25;;;19.80;99.90;;;;;;5094284;28;20020;-69
2023/07/08 03:38:01;;;;;;;3.70;1.90;;;19.80;99.90;;;;;;5092852;28;20016;-69
2023/07/08 03:40:26;;;;;;;2.58;2.03;;;19.70;99.90;;;;;;5094465;28;20050;-70
2023/07/08 03:42:52;;;;;;;3.60;2.15;;;19.70;99.90;;;;;;5094010;28;20047;-69
2023/07/08 03:45:18;;;;;;;2.35;2.15;;;19.80;99.90;;;;;;5093680;28;20024;-70
2023/07/08 03:47:43;;;;;;;3.78;2.30;;;19.70;99.90;;;;;;5094175;28;20036;-70
2023/07/08 03:50:21;;;;;;;2.70;2.17;;;19.60;99.90;;;;;;5094206;28;20099;-69
2023/07/08 03:52:47;;;;;;;2.20;2.00;;;19.70;99.90;;;;;;5093899;28;20028;-69
2023/07/08 03:55:13;;;;;;;4.95;2.10;;;19.80;99.90;;;;;;5093918;28;20024;-68
2023/07/08 03:57:39;;;;;;;2.95;1.90;;;19.90;99.90;;;;;;5093853;28;20020;-70
2023/07/08 04:00:09;;;;;;;4.20;2.10;;;20.00;99.90;;;;;;5093573;28;20028;-70
2023/07/08 04:02:35;;;;;;;3.35;1.92;;;20.10;99.90;;;;;;5092669;28;20031;-69
2023/07/08 04:05:01;;;;;;;5.00;1.90;;;20.10;99.90;;;;;;5093795;28;20028;-69
2023/07/08 04:07:27;;;;;;;3.67;1.83;;;20.10;99.90;;;;;;5093526;28;20099;-69
2023/07/08 04:09:52;;;;;;;3.60;2.15;;;20.10;99.90;;;;;;5093587;28;20108;-70
2023/07/08 04:12:18;;;;;;;3.50;2.10;;;20.10;99.90;;;;;;5093793;28;20016;-69
2023/07/08 04:14:44;;;;;;;3.17;1.80;;;20.10;99.90;;;;;;5093402;28;20035;-70
2023/07/08 04:17:11;;;;;;;4.82;1.88;;;20.10;99.90;;;;;;5093340;28;20107;-69
2023/07/08 04:19:39;;;;;;;2.08;1.92;;;20.10;99.90;;;;;;5093608;28;20035;-69
2023/07/08 04:22:06;;;;;;;2.60;2.00;;;20.10;99.90;;;;;;5093550;28;20498;-69
2023/07/08 04:24:32;;;;;;;7.25;2.30;;;20.00;99.90;;;;;;5093173;28;20044;-70
2023/07/08 04:26:58;;;;;;;3.53;2.35;;;20.00;99.90;;;;;;5093468;28;20641;-70
2023/07/08 04:29:24;;;;;;;2.97;2.05;;;19.90;99.90;;;;;;5093168;28;20092;-70
2023/07/08 04:31:50;;;;;;;3.40;2.28;;;19.70;99.90;;;;;;5093558;28;20502;-69
2023/07/08 04:34:16;;;;;;;4.22;2.10;;;19.70;99.90;;;;;;5093586;28;20437;-70
2023/07/08 04:36:42;;;;;;;3.75;2.08;;;19.50;99.90;;;;;;5093162;28;20130;-68
2023/07/08 04:39:09;;;;;;;4.28;2.38;;;19.60;99.90;;;;;;5093071;28;20115;-70
2023/07/08 04:41:40;;;;;;;4.30;2.25;;;19.60;99.90;;;;;;5092626;28;20488;-69
2023/07/08 04:44:18;;;;;;;3.95;2.20;;;19.60;99.90;;;;;;5093132;28;20016;-70
2023/07/08 04:46:53;;;;;;;2.55;2.08;;;19.50;99.90;;;;;;5092731;28;20032;-70
2023/07/08 04:49:19;;;;;;;3.38;2.20;;;19.50;99.90;;;;;;5092805;28;20036;-70
2023/07/08 04:51:45;;;;;;;2.40;2.00;;;19.50;99.90;;;;;;5093037;28;20062;-69
2023/07/08 04:54:11;;;;;;;4.28;2.10;;;19.50;99.90;;;;;;5092884;28;20055;-69
2023/07/08 04:56:45;;;;;;;3.80;2.28;;;19.50;99.90;;;;;;5093025;28;20031;-69
2023/07/08 04:59:16;;;;;;;9.40;2.22;;;19.50;99.90;;;;;;5093045;28;20405;-70
2023/07/08 05:01:42;;;;;;;4.85;2.20;;;19.50;99.90;;;;;;5092501;28;20119;-69
2023/07/08 05:04:10;;;;;;;3.13;2.10;;;19.50;99.90;;;;;;5092464;28;20039;-69
2023/07/08 05:06:36;;;;;;;4.75;2.00;;;19.40;99.90;;;;;;5092648;28;20027;-70
2023/07/08 05:09:03;;;;;;;3.40;2.03;;;19.50;99.90;;;;;;5092472;28;20506;-70
2023/07/08 05:11:29;;;;;;;3.50;2.35;;;19.60;99.90;;;;;;5092289;28;20030;-69
2023/07/08 05:13:55;;;;;;;2.78;2.00;;;19.80;99.90;;;;;;5092474;28;20490;-70
2023/07/08 05:16:21;;;;;;;4.10;2.30;;;19.90;99.90;;;;;;5092391;28;20035;-68
2023/07/08 05:18:47;;;;;;;2.42;1.90;;;20.00;99.90;;;;;;5092064;28;20046;-69
2023/07/08 05:21:13;;;;;;;3.10;2.22;;;20.00;99.90;;;;;;5092279;28;20016;-70
2023/07/08 05:23:39;;;;;;;4.53;2.22;;;20.00;99.90;;;;;;5090647;28;20089;-70
2023/07/08 05:26:07;;;;;;;2.75;2.10;;;20.10;99.90;;;;;;5091897;28;20495;-69
2023/07/08 05:28:33;;;;;;;4.50;2.13;;;20.20;99.90;;;;;;5092367;28;20071;-69
2023/07/08 05:30:59;;;;;;;4.20;2.00;;;20.20;99.90;;;;;;5090904;28;20040;-70
2023/07/08 05:33:26;;;;;;;3.03;2.00;;;20.30;99.90;;;;;;5091961;28;20126;-69
2023/07/08 05:35:52;;;;;;;4.57;2.13;;;20.30;99.90;;;;;;5092361;28;20028;-70
2023/07/08 05:38:18;;;;;;;5.50;2.40;;;20.20;99.90;;;;;;5091878;28;20075;-69
2023/07/08 05:40:53;;;;;;;3.65;2.15;;;20.40;99.90;;;;;;5091373;28;20281;-69
2023/07/08 05:43:19;;;;;;;3.72;2.22;;;20.20;99.90;;;;;;5091830;28;20436;-70
2023/07/08 05:45:45;;;;;;;4.53;2.10;;;20.30;99.90;;;;;;5091889;28;20551;-70
2023/07/08 05:48:11;;;;;;;4.75;2.17;;;20.20;99.90;;;;;;5091493;28;20074;-70
2023/07/08 05:50:37;;;;;;;4.40;2.22;;;20.10;99.90;;;;;;5091908;28;20056;-69
2023/07/08 05:53:03;;;;;;;4.60;2.40;;;20.10;99.90;;;;;;5091150;28;20508;-69
2023/07/08 05:55:29;;;;;;;4.25;2.33;;;20.20;99.90;;;;;;5091142;28;20607;-68
2023/07/08 05:57:54;;;;;;;3.70;2.28;;;20.20;99.90;;;;;;5092090;28;20019;-69
2023/07/08 06:00:20;;;;;;;3.15;2.40;;;20.20;99.90;;;;;;5091597;28;20032;-68
2023/07/08 06:02:46;;;;;;;3.72;2.40;;;20.30;99.90;;;;;;5091763;28;20536;-68
2023/07/08 06:05:11;;;;;;;4.28;2.50;;;20.30;99.90;;;;;;5091702;28;20034;-69
2023/07/08 06:07:37;;;;;;;4.03;2.58;;;20.20;99.90;;;;;;5091377;28;20056;-69
2023/07/08 06:10:03;;;;;;;5.85;2.67;;;20.20;99.90;;;;;;5091178;28;20110;-69
2023/07/08 06:12:30;;;;;;;3.47;2.60;;;20.30;99.90;;;;;;5091330;28;20035;-69
2023/07/08 06:14:56;;;;;;;4.28;2.95;;;20.30;99.90;;;;;;5091922;28;20028;-69
2023/07/08 06:17:22;;;;;;;4.15;2.30;;;20.40;99.90;;;;;;5091768;28;20035;-64
2023/07/08 06:19:48;;;;;;;4.72;2.70;;;20.70;99.90;;;;;;5092181;28;20043;-67
2023/07/08 06:22:13;;;;;;;9.45;3.42;;;20.90;99.90;;;;;;5091352;28;20031;-67
2023/07/08 06:24:39;;;;;;;6.95;4.63;;;21.10;99.90;;;;;;5090830;28;20032;-68
2023/07/08 06:27:05;;;;;;;9.48;5.40;;;21.00;99.90;;;;;;5124410;28;20025;-66
2023/07/08 06:29:31;;;;;;;6.20;3.33;;;21.40;99.90;;;;;;5091174;28;20532;-67
2023/07/08 06:31:57;;;;;;;4.07;3.42;;;21.60;99.90;;;;;;5091012;28;20111;-67
2023/07/08 06:34:23;;;;;;;5.63;3.17;;;21.60;99.90;;;;;;5091057;28;20039;-66
2023/07/08 06:36:50;;;;;;;6.50;3.38;;;21.80;99.90;;;;;;5090840;28;20028;-67
2023/07/08 06:39:16;;;;;;;6.85;3.60;;;21.80;99.90;;;;;;5090681;28;20153;-67
2023/07/08 06:41:42;;;;;;;4.55;3.45;;;21.90;99.90;;;;;;5091132;28;20140;-66
2023/07/08 06:44:08;;;;;;;4.38;3.90;;;21.90;99.90;;;;;;5091037;28;20034;-66
2023/07/08 06:46:34;;;;;;;5.90;4.47;;;22.00;99.90;;;;;;5090848;28;20024;-65
2023/07/08 06:48:59;;;;;;;4.88;4.00;;;22.00;99.90;;;;;;5090989;28;20032;-66
2023/07/08 06:51:26;;;;;;;7.35;4.30;;;22.10;99.90;;;;;;5091151;28;20031;-66
2023/07/08 06:53:52;;;;;;;7.55;4.47;;;22.40;99.90;;;;;;5090658;28;20032;-67
2023/07/08 06:56:17;;;;;;;6.75;4.03;;;22.50;99.90;;;;;;5090732;28;20031;-66
2023/07/08 06:58:43;;;;;;;6.57;4.20;;;22.50;99.90;;;;;;5090877;28;20095;-67
2023/07/08 07:01:09;;;;;;;7.15;4.68;;;22.60;99.90;;;;;;5090571;28;20024;-66
2023/07/08 07:03:35;;;;;;;7.45;4.45;;;22.60;99.90;;;;;;5091317;28;20563;-69
2023/07/08 07:06:00;;;;;;;5.38;4.30;;;22.40;99.90;;;;;;5094949;28;20016;-69
2023/07/08 07:08:26;;;;;;;8.73;4.95;;;22.30;99.90;;;;;;5094625;28;20047;-68
2023/07/08 07:10:52;;;;;;;6.20;4.05;;;22.10;99.90;;;;;;5094711;28;20024;-69
2023/07/08 07:13:17;;;;;;;5.32;4.25;;;22.10;99.90;;;;;;5094769;28;20442;-67
2023/07/08 07:15:43;;;;;;;6.68;4.57;;;22.00;99.90;;;;;;5094270;28;20020;-70
2023/07/08 07:18:09;;;;;;;5.68;4.20;;;22.10;99.90;;;;;;5085090;28;20077;-69
2023/07/08 07:20:37;;;;;;;5.07;4.55;;;22.20;99.90;;;;;;5074474;28;20107;-68
2023/07/08 07:23:02;;;;;;;6.20;4.20;;;22.20;99.90;;;;;;5074035;28;20056;-69
2023/07/08 07:25:28;;;;;;;5.25;4.28;;;22.40;99.90;;;;;;5074317;28;20028;-67
2023/07/08 07:27:54;;;;;;;7.15;4.75;;;22.30;99.90;;;;;;5074070;28;20027;-68
2023/07/08 07:30:20;;;;;;;5.57;4.20;;;22.40;99.90;;;;;;5074096;28;20487;-68
2023/07/08 07:32:45;;;;;;;5.90;4.30;;;22.50;99.90;;;;;;5074469;28;20495;-69
2023/07/08 07:35:13;;;;;;;5.82;4.25;;;22.60;99.90;;;;;;5074319;28;20407;-68
2023/07/08 07:37:39;;;;;;;5.55;4.05;;;22.70;99.90;;;;;;5073704;28;20578;-69
2023/07/08 07:40:12;;;;;;;6.55;5.00;;;22.80;99.90;;;;;;5074080;28;20028;-68
2023/07/08 07:42:38;;;;;;;8.60;4.90;;;22.80;99.90;;;;;;5073914;28;20036;-69
2023/07/08 07:45:04;;;;;;;8.13;4.45;;;22.90;99.90;;;;;;5074138;28;20413;-68
2023/07/08 07:47:30;;;;;;;6.68;4.57;;;23.00;99.90;;;;;;5073847;28;20036;-68
2023/07/08 07:49:56;;;;;;;7.70;4.63;;;23.10;99.90;;;;;;5073746;28;20375;-69
2023/07/08 07:52:24;;;;;;;6.32;4.97;;;23.30;99.90;;;;;;5073526;28;20087;-67
2023/07/08 07:54:51;;;;;;;6.25;4.70;;;23.50;99.90;;;;;;5073842;28;20078;-68
2023/07/08 07:57:16;;;;;;;6.65;5.00;;;23.50;99.90;;;;;;5073832;28;20066;-69
2023/07/08 07:59:42;;;;;;;8.30;5.38;;;23.80;99.90;;;;;;5073885;28;20032;-68
2023/07/08 08:02:08;;;;;;;7.90;5.18;;;23.80;99.90;;;;;;5073714;28;20032;-68
2023/07/08 08:04:34;;;;;;;7.35;4.88;;;23.80;99.90;;;;;;5073722;28;20094;-69
2023/07/08 08:07:00;;;;;;;7.30;5.30;;;24.00;99.90;;;;;;5073158;28;20487;-69
2023/07/08 08:09:26;;;;;;;6.07;5.07;;;24.00;99.90;;;;;;5073486;28;20579;-69
2023/07/08 08:11:51;;;;;;;6.47;5.13;;;24.00;99.90;;;;;;5072369;28;20024;-69
2023/07/08 08:14:18;;;;;;;6.30;5.22;;;24.20;99.90;;;;;;5073576;28;20037;-68
2023/07/08 08:16:44;;;;;;;10.55;5.68;;;24.30;99.90;;;;;;5072758;28;20031;-69
2023/07/08 08:19:10;;;;;;;7.93;5.47;;;24.40;99.90;;;;;;5091140;28;20031;-68
2023/07/08 08:21:35;;;;;;;9.15;5.57;;;24.60;99.90;;;;;;5093447;28;20043;-69
2023/07/08 08:24:01;;;;;;;7.93;5.35;;;24.60;99.90;;;;;;5093218;28;20048;-69
2023/07/08 08:26:27;;;;;;;7.97;5.93;;;24.70;99.90;;;;;;5093496;28;20384;-69
2023/07/08 08:28:53;;;;;;;8.32;5.20;;;24.60;99.90;;;;;;5093384;28;20460;-68
2023/07/08 08:31:18;;;;;;;9.02;6.43;;;24.60;99.90;;;;;;5093389;28;20481;-68
2023/07/08 08:33:44;;;;;;;9.35;6.20;;;24.60;99.90;;;;;;5093071;28;20078;-68
2023/07/08 08:36:10;;;;;;;8.80;6.40;;;24.60;99.90;;;;;;5092602;28;20032;-68
2023/07/08 08:38:35;;;;;;;9.25;6.40;;;24.60;99.90;;;;;;5093027;28;20035;-69
2023/07/08 08:41:28;;;;;;;9.88;6.40;;;24.60;99.90;;;;;;5093183;28;20040;-68
2023/07/08 08:43:53;;;;;;;7.15;6.35;;;24.70;99.90;;;;;;5093308;28;20012;-68
2023/07/08 08:46:34;;;;;;;8.50;6.60;;;24.80;99.90;;;;;;5092649;28;20073;-69
2023/07/08 08:49:20;;;;;;;10.45;6.72;;;24.80;99.90;;;;;;5092505;28;20040;-68
2023/07/08 08:51:46;;;;;;;10.27;6.82;;;24.80;99.90;;;;;;5092869;28;20031;-68
2023/07/08 08:54:12;;;;;;;8.95;6.65;;;24.80;99.90;;;;;;5093101;28;20521;-68
2023/07/08 08:57:19;;;;;;;8.93;7.15;;;24.90;99.90;;;;;;5092720;28;20032;-68
2023/07/08 08:59:50;;;;;;;8.80;7.03;;;25.00;99.90;;;;;;5092813;28;20535;-68
2023/07/08 09:02:37;;;;;;;9.20;6.47;;;25.20;99.90;;;;;;5092545;28;20081;-68
2023/07/08 09:05:07;;;;;;;7.32;6.60;;;25.40;99.90;;;;;;5092304;28;20020;-68
2023/07/08 09:08:12;;;;;;;8.23;6.20;;;25.60;99.90;;;;;;5092454;28;20051;-67
2023/07/08 09:11:00;;;;;;;8.90;6.00;;;25.60;99.90;;;;;;5030256;28;20408;-68
2023/07/08 09:13:32;;;;;;;7.35;6.22;;;25.20;99.90;;;;;;5030221;28;20500;-69
2023/07/08 09:16:18;;;;;;;9.88;6.53;;;25.10;99.90;;;;;;5030117;28;20419;-67
2023/07/08 09:18:59;;;;;;;8.73;6.10;;;25.30;99.90;;;;;;4951626;29;20159;-67
2023/07/08 09:21:30;;;;;;;8.45;5.97;;;25.30;99.90;;;;;;4952082;29;20031;-67
2023/07/08 09:24:00;;;;;;;8.88;6.20;;;25.40;99.90;;;;;;4951640;29;20043;-69
2023/07/08 09:26:28;;;;;;;9.13;6.15;;;25.60;99.90;;;;;;4951733;28;20033;-68
2023/07/08 09:28:54;;;;;;;10.18;6.47;;;25.50;99.90;;;;;;4950782;29;20506;-67
2023/07/08 09:31:28;;;;;;;9.27;6.63;;;25.60;99.90;;;;;;4951804;29;20023;-68
2023/07/08 09:34:14;;;;;;;9.98;6.45;;;25.60;99.90;;;;;;4951413;29;20047;-67
2023/07/08 09:36:42;;;;;;;9.63;6.95;;;25.70;99.90;;;;;;4951651;29;20037;-66
2023/07/08 09:39:14;;;;;;;10.32;7.32;;;25.80;99.90;;;;;;4951751;29;20450;-68
2023/07/08 09:41:42;;;;;;;9.10;6.88;;;26.00;99.90;;;;;;4951577;29;20043;-68
2023/07/08 09:44:14;;;;;;;12.15;7.63;;;26.00;99.90;;;;;;4951841;29;20457;-68
2023/07/08 09:46:40;;;;;;;10.90;7.10;;;26.10;99.90;;;;;;4972992;28;20053;-68
2023/07/08 09:49:28;;;;;;;10.27;7.28;;;26.10;99.90;;;;;;5029406;28;20571;-68
2023/07/08 09:51:55;;;;;;;11.57;7.65;;;26.00;99.90;;;;;;5029363;28;20099;-67
2023/07/08 09:54:23;;;;;;;10.15;7.10;;;25.90;99.90;;;;;;5029958;28;20032;-69
2023/07/08 09:57:11;;;;;;;10.48;7.40;;;25.90;99.90;;;;;;5086369;28;20035;-67
2023/07/08 09:59:49;;;;;;;12.75;8.20;;;25.70;99.90;;;;;;5091623;28;20028;-67
2023/07/08 10:02:21;;;;;;;12.75;8.18;;;25.80;99.90;;;;;;5091284;28;20036;-68
2023/07/08 10:04:46;;;;;;;10.90;7.50;;;25.90;99.90;;;;;;5091627;28;20418;-68
2023/07/08 10:07:16;;;;;;;12.52;7.47;;;25.90;99.90;;;;;;5091760;28;20035;-68
2023/07/08 10:09:42;;;;;;;12.57;7.93;;;26.00;99.90;;;;;;5091858;28;20111;-69
2023/07/08 10:12:13;;;;;;;10.07;7.30;;;26.10;99.90;;;;;;5091275;28;20482;-68
2023/07/08 10:14:53;;;;;;;11.07;7.22;;;26.10;99.90;;;;;;5090375;28;20032;-68
2023/07/08 10:17:21;;;;;;;9.88;7.57;;;26.10;99.90;;;;;;5091093;28;20012;-68
2023/07/08 10:19:47;;;;;;;11.63;7.57;;;26.20;99.90;;;;;;5091698;28;20055;-68
2023/07/08 10:22:19;;;;;;;13.15;8.02;;;26.20;99.90;;;;;;5091403;28;20032;-68
2023/07/08 10:25:02;;;;;;;9.63;7.65;;;26.20;99.90;;;;;;5091419;28;20032;-68
2023/07/08 10:27:46;;;;;;;;;;;26.20;99.90;;;;;;5091753;28;20492;-68
2023/07/08 10:30:50;;;;;;;11.45;7.15;;;26.20;99.90;;;;;;5091097;28;19923;-69
2023/07/08 10:33:19;;;;;;;11.55;7.30;;;26.20;99.90;;;;;;5028770;28;20030;-68
2023/07/08 10:36:13;;;;;;;12.23;7.25;;;26.30;99.90;;;;;;5012161;28;20033;-68
2023/07/08 10:39:06;;;;;;;12.00;7.03;;;26.50;99.90;;;;;;4951379;28;20505;-68
2023/07/08 10:42:05;;;;;;;11.55;6.95;;;26.80;99.90;;;;;;4955092;29;20023;-68
2023/07/08 10:44:42;;;;;;;12.18;6.72;;;27.00;99.90;;;;;;4954721;29;20035;-68
2023/07/08 10:47:23;;;;;;;10.85;6.72;;;27.10;99.90;;;;;;4954739;29;20050;-68
2023/07/08 10:50:03;;;;;;;11.52;6.30;;;27.00;99.90;;;;;;4955087;29;20533;-68
2023/07/08 10:53:08;;;;;;;11.25;6.28;;;27.10;99.90;;;;;;4954532;29;20028;-68
2023/07/08 10:55:57;;;;;;;10.88;5.45;;;27.20;99.90;;;;;;4954470;29;20060;-69
2023/07/08 10:58:45;;;;;;;8.00;5.22;;;27.20;99.90;;;;;;4954723;29;20039;-68
2023/07/08 11:01:23;;;;;;;7.55;5.20;;;26.90;99.90;;;;;;4953927;29;20513;-68
2023/07/08 11:03:54;;;;;;;8.45;5.05;;;27.00;99.90;;;;;;4954530;29;20058;-68
2023/07/08 11:06:28;;;;;;;8.88;5.15;;;27.20;99.90;;;;;;4954239;29;20555;-68
2023/07/08 11:08:59;;;;;;;6.68;5.10;;;27.30;99.90;;;;;;4965449;28;20535;-67
2023/07/08 11:11:30;;;;;;;12.23;5.53;;;27.10;99.90;;;;;;5022508;28;20068;-67
2023/07/08 11:14:13;;;;;;;9.80;5.22;;;27.00;99.90;;;;;;5027370;28;20037;-67
2023/07/08 11:16:57;;;;;;;11.15;5.38;;;26.80;99.90;;;;;;5085574;28;20524;-65
2023/07/08 11:19:38;;;;;;;7.75;5.70;;;26.80;99.90;;;;;;5094145;28;20031;-66
2023/07/08 11:22:13;;;;;;;9.90;6.10;;;26.90;99.90;;;;;;5093411;28;20111;-65
2023/07/08 11:24:48;;;;;;;9.10;5.80;;;26.90;99.90;;;;;;5093606;28;20044;-67
2023/07/08 11:27:30;;;;;;;11.05;5.85;;;26.80;99.90;;;;;;5094081;28;20107;-67
2023/07/08 11:30:10;;;;;;;9.30;5.60;;;26.80;99.90;;;;;;5093158;28;20067;-67
2023/07/08 11:32:37;;;;;;;9.80;5.65;;;26.90;99.90;;;;;;5094052;28;20047;-67
2023/07/08 11:35:05;;;;;;;10.05;5.43;;;27.10;99.90;;;;;;5093991;28;20062;-66
2023/07/08 11:37:31;;;;;;;7.68;5.30;;;27.00;99.90;;;;;;5093775;28;20031;-66
2023/07/08 11:40:21;;;;;;;8.93;5.10;;;27.00;99.90;;;;;;5094100;28;20099;-66
2023/07/08 11:42:52;;;;;;;9.27;5.50;;;27.20;99.90;;;;;;5076261;28;20048;-66
2023/07/08 11:45:18;;;;;;;8.73;5.20;;;27.40;99.90;;;;;;5078812;28;20061;-64
2023/07/08 11:47:48;;;;;;;6.85;5.07;;;27.40;99.90;;;;;;5080805;28;20020;-65
2023/07/08 11:50:35;;;;;;;10.57;5.45;;;27.40;99.90;;;;;;5082704;28;20033;-65
2023/07/08 11:53:08;;;;;;;9.52;5.40;;;27.10;99.90;;;;;;5073267;28;20375;-63
2023/07/08 11:55:55;;;;;;;8.82;5.75;;;27.30;99.90;;;;;;5073114;28;20064;-66
2023/07/08 11:58:26;;;;;;;11.10;5.93;;;27.40;99.90;;;;;;5072720;28;20139;-65
2023/07/08 12:01:00;;;;;;;9.70;5.50;;;27.60;99.90;;;;;;5072823;28;20071;-64
2023/07/08 12:03:35;;;;;;;9.45;6.07;;;27.60;99.90;;;;;;5072843;28;20032;-65
2023/07/08 12:06:06;;;;;;;11.45;6.47;;;27.40;99.90;;;;;;5076323;28;20013;-65
2023/07/08 12:08:39;;;;;;;9.20;6.20;;;27.50;99.90;;;;;;5086623;28;20032;-64
2023/07/08 12:11:12;;;;;;;12.75;6.85;;;27.30;99.90;;;;;;5073306;28;20441;-65
2023/07/08 12:13:38;;;;;;;11.90;6.90;;;27.30;99.90;;;;;;5072951;28;20056;-65
2023/07/08 12:16:11;;;;;;;12.10;6.65;;;27.10;99.90;;;;;;5092951;28;20024;-64
2023/07/08 12:18:45;;;;;;;10.23;6.97;;;27.00;99.90;;;;;;5091004;28;20051;-65
2023/07/08 12:21:12;;;;;;;11.65;7.00;;;27.10;99.90;;;;;;5093350;28;20035;-65
2023/07/08 12:23:45;;;;;;;12.50;7.03;;;27.00;99.90;;;;;;5093415;28;20048;-65
2023/07/08 12:26:10;;;;;;;9.45;6.75;;;26.80;99.90;;;;;;5093218;28;20406;-65
2023/07/08 12:28:38;;;;;;;12.52;7.03;;;26.80;99.90;;;;;;5089561;28;20047;-66
2023/07/08 12:31:15;;;;;;;12.77;7.15;;;26.70;99.90;;;;;;5078390;28;20020;-65
2023/07/08 12:33:41;;;;;;;8.77;6.20;;;26.80;99.90;;;;;;5073219;28;20028;-66
2023/07/08 12:36:10;;;;;;;11.30;6.07;;;26.80;99.90;;;;;;5079319;28;20047;-65
2023/07/08 12:38:46;;;;;;;10.18;6.10;;;27.00;99.90;;;;;;5093013;28;20024;-65
2023/07/08 12:41:14;;;;;;;10.88;6.20;;;26.90;99.90;;;;;;5091249;28;20039;-66
2023/07/08 12:43:40;;;;;;;9.80;5.72;;;26.80;99.90;;;;;;5093022;28;20446;-66
2023/07/08 12:46:09;;;;;;;9.85;6.13;;;26.70;99.90;;;;;;5091697;28;20035;-66
2023/07/08 12:48:38;;;;;;;7.97;5.60;;;26.80;99.90;;;;;;5090424;28;20105;-66
2023/07/08 12:51:06;;;;;;;7.30;5.45;;;26.90;99.90;;;;;;5080389;28;20112;-66
2023/07/08 12:53:33;;;;;;;6.70;4.85;;;26.90;99.90;;;;;;5081269;28;20020;-65
2023/07/08 12:56:00;;;;;;;6.25;5.15;;;26.80;99.90;;;;;;5092317;28;20558;-66
2023/07/08 12:58:29;;;;;;;8.20;5.78;;;26.90;99.90;;;;;;5072441;28;20028;-65